Terminal Aerodrome Forecast
Issued by NWS

Home | Current Version | Previous Version | Text Only | Print | Product List | Glossary On
Versions: 1 2 3 4 5 6 7 8 9 10 11 12
000
FTAK31 PAJN 140531
TAFAWG
TAF
PAWG 140531Z 1406/1506 08008KT 6SM -RA BR OVC030 WS020/15040KT
     FM141100 11015G25KT 4SM RA BR OVC025 WS020/15035KT
     FM142100 14010KT 4SM RA BR OVC015
     FM150300 17008KT 5SM -RA BR SCT015 OVC025
      AMD LTD TO CLD VIS AND WIND 1406/1415=

USA.gov is the U.S. government's official web portal to all federal, state and local government web resources and services.